Andyville, Minnesota
Current Conditions -  °F | °C
As of 10:36 PM on Monday 20 Oct 2014 (Local Time) from KAUM Reporting Station
Clear Clear  
Wind Chill: 45°   Ceiling: Unl
Heat Index: 45°   Visibility: 10mi
Dew Point: 37°   Wind: 0mph
Humidity: 76%   Direction: NA
Pressure: 30.05"   Gusts: NA
Location:  43.7173°N, 92.9889°W
Report Text: KAUM 210336Z AUTO 00000KT 10SM CLR 07/03 A3005 RMK AO2
Loading
Personal Weather Stations






























Interactive Weather Map
Tropical Storm Tracking
New forecast layout! Learn more

10-Day Weather Forecast

Advertisements
Track Severe Weather on mobile